createdAt,value
2023-04-22T00:00:01.149Z,0
2023-04-22T00:01:01.745Z,0
2023-04-22T00:02:02.392Z,0
2023-04-22T00:03:03.060Z,0
2023-04-22T00:04:03.879Z,0
2023-04-22T00:05:04.849Z,0
2023-04-22T00:06:05.551Z,0
2023-04-22T00:07:06.138Z,0
2023-04-22T00:08:06.735Z,0
2023-04-22T00:09:07.352Z,0
2023-04-22T00:10:07.944Z,0
2023-04-22T00:11:08.532Z,0
2023-04-22T00:12:09.171Z,0
2023-04-22T00:13:09.767Z,0
2023-04-22T00:14:10.353Z,0
2023-04-22T00:15:10.949Z,0
2023-04-22T00:16:11.605Z,0
2023-04-22T00:17:12.248Z,0
2023-04-22T00:18:12.867Z,0
2023-04-22T00:19:13.478Z,0
2023-04-22T00:20:14.071Z,0
2023-04-22T00:21:14.664Z,0
2023-04-22T00:22:15.283Z,0
2023-04-22T00:23:15.883Z,0
2023-04-22T00:24:16.464Z,0
2023-04-22T00:25:17.082Z,0
2023-04-22T00:26:17.680Z,0
2023-04-22T00:27:18.275Z,0
2023-04-22T00:28:18.873Z,0
2023-04-22T00:29:19.472Z,0
2023-04-22T00:30:20.070Z,0
2023-04-22T00:31:20.759Z,0
2023-04-22T00:32:21.422Z,0
2023-04-22T00:33:22.018Z,0
2023-04-22T00:34:22.613Z,0
2023-04-22T00:35:23.226Z,0
2023-04-22T00:36:23.837Z,0
2023-04-22T00:37:24.433Z,0
2023-04-22T00:38:25.028Z,0
2023-04-22T00:39:25.642Z,0
2023-04-22T00:40:26.234Z,0
2023-04-22T00:41:26.833Z,0
2023-04-22T00:42:27.428Z,0
2023-04-22T00:43:28.027Z,0
2023-04-22T00:44:28.613Z,0
2023-04-22T00:45:29.205Z,0
2023-04-22T00:46:29.890Z,0
2023-04-22T00:47:30.487Z,0
2023-04-22T00:48:31.039Z,0
2023-04-22T00:49:31.627Z,0
2023-04-22T00:50:32.234Z,0
2023-04-22T00:51:32.815Z,0
2023-04-22T00:52:33.414Z,0
2023-04-22T00:53:34.055Z,0
2023-04-22T00:54:34.639Z,0
2023-04-22T00:55:35.258Z,0
2023-04-22T00:56:35.846Z,0
2023-04-22T00:57:36.466Z,0
2023-04-22T00:58:37.056Z,0
2023-04-22T00:59:37.982Z,0
2023-04-22T01:00:38.806Z,0
2023-04-22T01:01:39.370Z,0
2023-04-22T01:02:40.158Z,0
2023-04-22T01:03:41.150Z,0
2023-04-22T01:04:41.439Z,0
2023-04-22T01:05:42.039Z,0
2023-04-22T01:06:42.647Z,0
2023-04-22T01:07:43.267Z,0
2023-04-22T01:08:43.859Z,0
2023-04-22T01:09:44.448Z,0
2023-04-22T01:10:45.044Z,0
2023-04-22T01:11:45.638Z,0
2023-04-22T01:12:46.244Z,0
2023-04-22T01:13:46.848Z,0
2023-04-22T01:14:47.465Z,0
2023-04-22T01:15:48.037Z,0
2023-04-22T01:16:48.671Z,0
2023-04-22T01:17:49.257Z,0
2023-04-22T01:18:49.820Z,0
2023-04-22T01:19:50.413Z,0
2023-04-22T01:20:51.014Z,0
2023-04-22T01:21:51.609Z,0
2023-04-22T01:22:52.213Z,0
2023-04-22T01:23:52.804Z,0
2023-04-22T01:24:53.403Z,0
2023-04-22T01:25:54.016Z,0
2023-04-22T01:26:54.608Z,0
2023-04-22T01:27:55.227Z,0
2023-04-22T01:28:55.816Z,0
2023-04-22T01:29:56.412Z,0
2023-04-22T01:30:57.025Z,0
2023-04-22T01:31:57.724Z,0
2023-04-22T01:32:58.358Z,0
2023-04-22T01:33:58.921Z,0
2023-04-22T01:34:59.556Z,0
2023-04-22T01:36:00.175Z,0
2023-04-22T01:37:00.797Z,0
2023-04-22T01:38:01.382Z,0
2023-04-22T01:39:01.979Z,0
2023-04-22T01:40:02.572Z,0
2023-04-22T01:41:03.167Z,0
2023-04-22T01:42:03.773Z,0
2023-04-22T01:43:04.370Z,0
2023-04-22T01:44:05.027Z,0
2023-04-22T01:45:05.572Z,0
2023-04-22T01:46:06.199Z,0
2023-04-22T01:47:06.778Z,0
2023-04-22T01:48:07.489Z,0
2023-04-22T01:49:08.094Z,0
2023-04-22T01:50:08.687Z,0
2023-04-22T01:51:09.301Z,0
2023-04-22T01:52:09.911Z,0
2023-04-22T01:53:10.500Z,0
2023-04-22T01:54:11.099Z,0
2023-04-22T01:55:11.696Z,0
2023-04-22T01:56:12.284Z,0
2023-04-22T01:57:12.877Z,0
2023-04-22T01:58:13.475Z,0
2023-04-22T01:59:14.122Z,0
2023-04-22T02:00:14.701Z,0
2023-04-22T02:01:15.315Z,0
2023-04-22T02:02:16.091Z,0
2023-04-22T02:03:16.795Z,0
2023-04-22T02:04:17.425Z,0
2023-04-22T02:05:18.031Z,0
2023-04-22T02:06:18.614Z,0
2023-04-22T02:07:19.204Z,0
2023-04-22T02:08:19.799Z,0
2023-04-22T02:09:20.402Z,0
2023-04-22T02:10:20.986Z,0
2023-04-22T02:11:21.584Z,0
2023-04-22T02:12:22.196Z,0
2023-04-22T02:13:22.788Z,0
2023-04-22T02:14:23.381Z,0
2023-04-22T02:15:23.981Z,0
2023-04-22T02:16:24.644Z,0
2023-04-22T02:17:25.245Z,0
2023-04-22T02:18:25.851Z,0
2023-04-22T02:19:26.503Z,0
2023-04-22T02:20:27.104Z,0
2023-04-22T02:21:27.699Z,0
2023-04-22T02:22:28.297Z,0
2023-04-22T02:23:28.889Z,0
2023-04-22T02:24:29.479Z,0
2023-04-22T02:25:30.071Z,0
2023-04-22T02:26:30.666Z,0
2023-04-22T02:27:31.258Z,0
2023-04-22T02:28:31.853Z,0
2023-04-22T02:29:32.464Z,0
2023-04-22T02:30:33.073Z,0
2023-04-22T02:31:33.687Z,0
2023-04-22T02:32:34.270Z,0
2023-04-22T02:33:34.852Z,0
2023-04-22T02:34:35.452Z,0
2023-04-22T02:35:36.038Z,0
2023-04-22T02:36:36.631Z,0
2023-04-22T02:37:37.223Z,0
2023-04-22T02:38:37.822Z,0
2023-04-22T02:39:38.681Z,0
2023-04-22T02:40:39.458Z,0
2023-04-22T02:41:40.047Z,0
2023-04-22T02:42:40.659Z,0
2023-04-22T02:43:41.236Z,0
2023-04-22T02:44:41.835Z,0
2023-04-22T02:45:42.441Z,0
2023-04-22T02:46:43.109Z,0
2023-04-22T02:47:43.716Z,0
2023-04-22T02:48:44.285Z,0
2023-04-22T02:49:44.895Z,0
2023-04-22T02:50:45.476Z,0
2023-04-22T02:51:46.078Z,0
2023-04-22T02:52:46.692Z,0
2023-04-22T02:53:47.299Z,0
2023-04-22T02:54:47.893Z,0
2023-04-22T02:55:48.489Z,0
2023-04-22T02:56:49.092Z,0
2023-04-22T02:57:49.688Z,0
2023-04-22T02:58:50.300Z,0
2023-04-22T02:59:50.866Z,0
2023-04-22T03:00:51.519Z,0
2023-04-22T03:01:52.119Z,0
2023-04-22T03:02:52.872Z,0
2023-04-22T03:03:53.685Z,0
2023-04-22T03:04:54.150Z,0
2023-04-22T03:05:54.746Z,0
2023-04-22T03:06:55.336Z,0
2023-04-22T03:07:55.925Z,0
2023-04-22T03:08:56.532Z,0
2023-04-22T03:09:57.112Z,0
2023-04-22T03:10:57.755Z,0
2023-04-22T03:11:58.379Z,0
2023-04-22T03:12:58.972Z,0
2023-04-22T03:13:59.557Z,0
2023-04-22T03:15:00.159Z,0
2023-04-22T03:16:00.796Z,0
2023-04-22T03:17:01.570Z,0
2023-04-22T03:18:02.074Z,0
2023-04-22T03:19:02.651Z,0
2023-04-22T03:20:03.224Z,0
2023-04-22T03:21:03.803Z,0
2023-04-22T03:22:04.396Z,0
2023-04-22T03:23:04.998Z,0
2023-04-22T03:24:05.583Z,0
2023-04-22T03:25:06.176Z,0
2023-04-22T03:26:06.789Z,0
2023-04-22T03:27:07.386Z,0
2023-04-22T03:28:07.977Z,0
2023-04-22T03:29:08.568Z,0
2023-04-22T03:30:09.164Z,0
2023-04-22T03:31:09.762Z,0
2023-04-22T03:32:10.402Z,0
2023-04-22T03:33:11.016Z,4
2023-04-22T03:34:11.561Z,4
2023-04-22T03:35:12.155Z,0
2023-04-22T03:36:12.768Z,0
2023-04-22T03:37:13.384Z,4
2023-04-22T03:38:13.965Z,4
2023-04-22T03:39:14.580Z,4
2023-04-22T03:40:15.174Z,4
2023-04-22T03:41:15.774Z,4
2023-04-22T03:42:16.384Z,8
2023-04-22T03:43:16.982Z,8
2023-04-22T03:44:17.569Z,8
2023-04-22T03:45:18.170Z,8
2023-04-22T03:46:19.343Z,12
2023-04-22T03:47:19.904Z,12
2023-04-22T03:48:20.666Z,16
2023-04-22T03:49:21.278Z,20
2023-04-22T03:50:21.878Z,20
2023-04-22T03:51:22.499Z,24
2023-04-22T03:52:23.086Z,24
2023-04-22T03:53:23.696Z,28
2023-04-22T03:54:24.312Z,36
2023-04-22T03:55:24.929Z,44
2023-04-22T03:56:25.531Z,48
2023-04-22T03:57:26.116Z,56
2023-04-22T03:58:26.724Z,60
2023-04-22T03:59:27.303Z,68
2023-04-22T04:00:27.898Z,80
2023-04-22T04:01:28.492Z,92
2023-04-22T04:02:29.168Z,108
2023-04-22T04:03:31.160Z,120
2023-04-22T04:04:30.716Z,140
2023-04-22T04:05:31.855Z,160
2023-04-22T04:06:32.472Z,180
2023-04-22T04:07:33.069Z,204
2023-04-22T04:08:33.698Z,232
2023-04-22T04:09:34.287Z,260
2023-04-22T04:10:34.883Z,292
2023-04-22T04:11:35.485Z,324
2023-04-22T04:12:36.080Z,360
2023-04-22T04:13:36.681Z,396
2023-04-22T04:14:37.274Z,432
2023-04-22T04:15:37.970Z,472
2023-04-22T04:16:38.526Z,516
2023-04-22T04:17:39.170Z,556
2023-04-22T04:18:39.731Z,592
2023-04-22T04:19:40.738Z,632
2023-04-22T04:20:41.652Z,676
2023-04-22T04:21:42.253Z,720
2023-04-22T04:22:42.846Z,768
2023-04-22T04:23:43.444Z,824
2023-04-22T04:24:44.042Z,888
2023-04-22T04:25:44.647Z,956
2023-04-22T04:26:45.259Z,1032
2023-04-22T04:27:45.874Z,1108
2023-04-22T04:28:46.470Z,1192
2023-04-22T04:29:47.073Z,1276
2023-04-22T04:30:47.808Z,1360
2023-04-22T04:31:48.481Z,1448
2023-04-22T04:32:49.198Z,1536
2023-04-22T04:33:49.760Z,1632
2023-04-22T04:34:50.361Z,1724
2023-04-22T04:35:50.956Z,1824
2023-04-22T04:36:51.552Z,1924
2023-04-22T04:37:52.155Z,2044
2023-04-22T04:38:55.198Z,2160
2023-04-22T04:39:54.348Z,2280
2023-04-22T04:40:54.939Z,2400
2023-04-22T04:41:55.555Z,2512
2023-04-22T04:42:56.153Z,2616
2023-04-22T04:43:56.752Z,2704
2023-04-22T04:44:57.349Z,2776
2023-04-22T04:45:57.946Z,2828
2023-04-22T04:46:58.680Z,2860
2023-04-22T04:47:59.382Z,2880
2023-04-22T04:48:59.953Z,2888
2023-04-22T04:50:00.556Z,2908
2023-04-22T04:51:01.173Z,2956
2023-04-22T04:52:01.989Z,3020
2023-04-22T04:53:02.388Z,3100
2023-04-22T04:54:02.981Z,3188
2023-04-22T04:55:03.589Z,3284
2023-04-22T04:56:04.179Z,3404
2023-04-22T04:57:04.771Z,3532
2023-04-22T04:58:05.399Z,3668
2023-04-22T04:59:06.003Z,3832
2023-04-22T05:00:06.588Z,4004
2023-04-22T05:01:07.182Z,4200
2023-04-22T05:02:07.923Z,4408
2023-04-22T05:03:08.848Z,4620
2023-04-22T05:04:09.495Z,4832
2023-04-22T05:05:10.121Z,5032
2023-04-22T05:06:10.735Z,5224
2023-04-22T05:07:11.327Z,5396
2023-04-22T05:08:11.943Z,5548
2023-04-22T05:09:12.540Z,5680
2023-04-22T05:10:13.185Z,5792
2023-04-22T05:11:13.782Z,5884
2023-04-22T05:12:14.401Z,5988
2023-04-22T05:13:14.996Z,6100
2023-04-22T05:14:15.603Z,6232
2023-04-22T05:15:16.218Z,6356
2023-04-22T05:16:16.868Z,6468
2023-04-22T05:17:17.416Z,6540
2023-04-22T05:18:18.013Z,6576
2023-04-22T05:19:18.628Z,6560
2023-04-22T05:20:19.258Z,6504
2023-04-22T05:21:19.858Z,6408
2023-04-22T05:22:20.452Z,6280
2023-04-22T05:23:21.049Z,6136
2023-04-22T05:24:21.658Z,5996
2023-04-22T05:25:22.248Z,5868
2023-04-22T05:26:22.848Z,5760
2023-04-22T05:27:23.446Z,5716
2023-04-22T05:28:24.051Z,5696
2023-04-22T05:29:24.660Z,5684
2023-04-22T05:30:25.255Z,5752
2023-04-22T05:31:25.944Z,5844
2023-04-22T05:32:26.540Z,6040
2023-04-22T05:33:27.171Z,6320
2023-04-22T05:34:27.786Z,6636
2023-04-22T05:35:28.410Z,6908
2023-04-22T05:36:31.275Z,7092
2023-04-22T05:37:30.591Z,7180
2023-04-22T05:38:31.194Z,7196
2023-04-22T05:39:31.794Z,7240
2023-04-22T05:40:32.405Z,7396
2023-04-22T05:41:33.007Z,7700
2023-04-22T05:42:33.618Z,8160
2023-04-22T05:43:34.233Z,8636
2023-04-22T05:44:34.831Z,9216
2023-04-22T05:45:35.463Z,9780
2023-04-22T05:46:36.205Z,10312
2023-04-22T05:47:36.894Z,10780
2023-04-22T05:48:37.491Z,11176
2023-04-22T05:49:38.421Z,11416
2023-04-22T05:50:39.131Z,11636
2023-04-22T05:51:39.730Z,11768
2023-04-22T05:52:40.333Z,11856
2023-04-22T05:53:40.939Z,11988
2023-04-22T05:54:41.556Z,12152
2023-04-22T05:55:42.187Z,12380
2023-04-22T05:56:42.772Z,12648
2023-04-22T05:57:43.380Z,12848
2023-04-22T05:58:43.977Z,13036
2023-04-22T05:59:44.578Z,13168
2023-04-22T06:00:45.181Z,13332
2023-04-22T06:01:45.805Z,13480
2023-04-22T06:02:46.521Z,13672
2023-04-22T06:03:47.468Z,13832
2023-04-22T06:04:48.316Z,14040
2023-04-22T06:05:49.026Z,14276
2023-04-22T06:06:49.581Z,14576
2023-04-22T06:07:50.200Z,14896
2023-04-22T06:08:50.806Z,15156
2023-04-22T06:09:57.017Z,15548
2023-04-22T06:10:53.030Z,15844
2023-04-22T06:11:53.613Z,16180
2023-04-22T06:12:54.232Z,16540
2023-04-22T06:13:54.861Z,16764
2023-04-22T06:14:55.454Z,16736
2023-04-22T06:15:56.107Z,16980
2023-04-22T06:16:56.666Z,17452
2023-04-22T06:17:57.283Z,17472
2023-04-22T06:18:57.889Z,18080
2023-04-22T06:19:58.492Z,18112
2023-04-22T06:20:59.095Z,18304
2023-04-22T06:21:59.683Z,18240
2023-04-22T06:23:00.283Z,18304
2023-04-22T06:24:00.879Z,18496
2023-04-22T06:25:01.502Z,18720
2023-04-22T06:26:02.085Z,18592
2023-04-22T06:27:02.686Z,18048
2023-04-22T06:28:03.299Z,17952
2023-04-22T06:29:03.900Z,17352
2023-04-22T06:30:04.508Z,17508
2023-04-22T06:31:05.170Z,17460
2023-04-22T06:32:05.755Z,17476
2023-04-22T06:33:06.400Z,17560
2023-04-22T06:34:06.964Z,17640
2023-04-22T06:35:07.588Z,17660
2023-04-22T06:36:08.197Z,17920
2023-04-22T06:37:08.930Z,17984
2023-04-22T06:38:09.541Z,18016
2023-04-22T06:39:10.138Z,19264
2023-04-22T06:40:10.740Z,18400
2023-04-22T06:41:11.338Z,18688
2023-04-22T06:42:11.941Z,19008
2023-04-22T06:43:12.571Z,19424
2023-04-22T06:44:13.140Z,19648
2023-04-22T06:45:13.742Z,20096
2023-04-22T06:46:14.394Z,22528
2023-04-22T06:47:15.013Z,20992
2023-04-22T06:48:15.629Z,22528
2023-04-22T06:49:16.228Z,22400
2023-04-22T06:50:16.825Z,22752
2023-04-22T06:51:17.457Z,22720
2023-04-22T06:52:18.038Z,23008
2023-04-22T06:53:18.642Z,24128
2023-04-22T06:54:19.301Z,24576
2023-04-22T06:55:19.856Z,25120
2023-04-22T06:56:20.456Z,25472
2023-04-22T06:57:21.076Z,25536
2023-04-22T06:58:21.716Z,25824
2023-04-22T06:59:22.301Z,25920
2023-04-22T07:00:22.920Z,25824
2023-04-22T07:01:23.594Z,25920
2023-04-22T07:02:24.321Z,25984
2023-04-22T07:03:24.925Z,27008
2023-04-22T07:04:25.645Z,26016
2023-04-22T07:05:26.243Z,25728
2023-04-22T07:06:26.837Z,25664
2023-04-22T07:07:27.435Z,25568
2023-04-22T07:08:28.036Z,25728
2023-04-22T07:09:28.638Z,25728
2023-04-22T07:10:29.241Z,25632
2023-04-22T07:11:29.838Z,25536
2023-04-22T07:12:30.438Z,25120
2023-04-22T07:13:31.037Z,24992
2023-04-22T07:14:31.642Z,26976
2023-04-22T07:15:32.246Z,24864
2023-04-22T07:16:33.008Z,24864
2023-04-22T07:17:33.704Z,25248
2023-04-22T07:18:34.259Z,25120
2023-04-22T07:19:35.410Z,25184
2023-04-22T07:20:36.035Z,25440
2023-04-22T07:21:36.652Z,25472
2023-04-22T07:22:37.258Z,25568
2023-04-22T07:23:37.877Z,25856
2023-04-22T07:24:38.487Z,25664
2023-04-22T07:25:39.080Z,25696
2023-04-22T07:26:39.683Z,26080
2023-04-22T07:27:40.279Z,26400
2023-04-22T07:28:40.904Z,26752
2023-04-22T07:29:41.748Z,27104
2023-04-22T07:30:42.410Z,27520
2023-04-22T07:31:43.039Z,28096
2023-04-22T07:32:43.646Z,28640
2023-04-22T07:33:44.212Z,29248
2023-04-22T07:34:44.814Z,32992
2023-04-22T07:35:45.413Z,29056
2023-04-22T07:36:46.015Z,29792
2023-04-22T07:37:46.614Z,36896
2023-04-22T07:38:47.218Z,49408
2023-04-22T07:39:47.837Z,43744
2023-04-22T07:40:48.440Z,38464
2023-04-22T07:41:49.063Z,35872
2023-04-22T07:42:49.667Z,40000
2023-04-22T07:43:50.263Z,45216
2023-04-22T07:44:50.865Z,36960
2023-04-22T07:45:51.574Z,46048
2023-04-22T07:46:52.084Z,44800
2023-04-22T07:47:52.769Z,33952
2023-04-22T07:48:53.451Z,43136
2023-04-22T07:49:54.035Z,35968
2023-04-22T07:50:54.640Z,37984
2023-04-22T07:51:55.256Z,45664
2023-04-22T07:52:55.859Z,49312
2023-04-22T07:53:56.469Z,41440
2023-04-22T07:54:57.056Z,34848
2023-04-22T07:55:57.659Z,42112
2023-04-22T07:56:58.273Z,43232
2023-04-22T07:57:58.881Z,42560
2023-04-22T07:58:59.481Z,41120
2023-04-22T08:00:00.146Z,42176
2023-04-22T08:01:00.725Z,44864
2023-04-22T08:02:01.310Z,44416
2023-04-22T08:03:01.967Z,44480
2023-04-22T08:04:02.802Z,46432
2023-04-22T08:05:03.618Z,48896
2023-04-22T08:06:04.316Z,48704
2023-04-22T08:07:17.120Z,47424
2023-04-22T08:08:06.517Z,48800
2023-04-22T08:09:07.123Z,53344
2023-04-22T08:10:07.731Z,57920
2023-04-22T08:11:08.337Z,57216
2023-04-22T08:12:08.934Z,52000
2023-04-22T08:13:09.539Z,41824
2023-04-22T08:14:10.134Z,54272
2023-04-22T08:15:10.757Z,49216
2023-04-22T08:16:11.359Z,50656
2023-04-22T08:17:11.941Z,51520
2023-04-22T08:18:12.543Z,52608
2023-04-22T08:19:13.142Z,54144
2023-04-22T08:20:13.776Z,50272
2023-04-22T08:21:14.390Z,50368
2023-04-22T08:22:14.985Z,50400
2023-04-22T08:23:15.618Z,56128
2023-04-22T08:24:16.201Z,62880
2023-04-22T08:25:16.802Z,72608
2023-04-22T08:26:17.408Z,74112
2023-04-22T08:27:18.004Z,59328
2023-04-22T08:28:18.624Z,53376
2023-04-22T08:29:19.229Z,69856
2023-04-22T08:30:19.830Z,72000
2023-04-22T08:31:20.456Z,73952
2023-04-22T08:32:21.077Z,67424
2023-04-22T08:33:21.637Z,61088
2023-04-22T08:34:22.230Z,57536
2023-04-22T08:35:22.833Z,64512
2023-04-22T08:36:23.433Z,72256
2023-04-22T08:37:24.053Z,66400
2023-04-22T08:38:24.654Z,66144
2023-04-22T08:39:25.256Z,61760
2023-04-22T08:40:25.856Z,55744
2023-04-22T08:41:26.457Z,52320
2023-04-22T08:42:27.085Z,48448
2023-04-22T08:43:27.677Z,51968
2023-04-22T08:44:28.271Z,46080
2023-04-22T08:45:28.878Z,81792
2023-04-22T08:46:29.533Z,70080
2023-04-22T08:47:30.152Z,64224
2023-04-22T08:48:30.713Z,43328
2023-04-22T08:49:31.315Z,37824
2023-04-22T08:50:31.918Z,43936
2023-04-22T08:51:32.543Z,50752
2023-04-22T08:52:33.203Z,45088
2023-04-22T08:53:33.754Z,48448
2023-04-22T08:54:34.363Z,56512
2023-04-22T08:55:34.961Z,62240
2023-04-22T08:56:35.590Z,59200
2023-04-22T08:57:36.181Z,66464
2023-04-22T08:58:36.789Z,65696
2023-04-22T08:59:37.532Z,73696
2023-04-22T09:00:38.383Z,70112
2023-04-22T09:01:39.003Z,77792
2023-04-22T09:02:39.641Z,81120
2023-04-22T09:03:40.489Z,77888
2023-04-22T09:04:40.887Z,72320
2023-04-22T09:05:41.445Z,77344
2023-04-22T09:06:42.068Z,76704
2023-04-22T09:07:42.678Z,78592
2023-04-22T09:08:43.286Z,77888
2023-04-22T09:09:43.884Z,80608
2023-04-22T09:10:44.501Z,78016
2023-04-22T09:11:45.104Z,73632
2023-04-22T09:12:45.705Z,70656
2023-04-22T09:13:46.306Z,78464
2023-04-22T09:14:46.903Z,90624
2023-04-22T09:15:47.510Z,95168
2023-04-22T09:16:48.255Z,97760
2023-04-22T09:17:48.878Z,89856
2023-04-22T09:18:49.439Z,80384
2023-04-22T09:19:50.041Z,73408
2023-04-22T09:20:50.642Z,68608
2023-04-22T09:21:53.692Z,74272
2023-04-22T09:22:52.855Z,83392
2023-04-22T09:23:53.469Z,87584
2023-04-22T09:24:54.059Z,83936
2023-04-22T09:25:54.658Z,77888
2023-04-22T09:26:55.267Z,74240
2023-04-22T09:27:55.869Z,76896
2023-04-22T09:28:56.458Z,79680
2023-04-22T09:29:57.060Z,73696
2023-04-22T09:30:57.662Z,66464
2023-04-22T09:31:58.294Z,61920
2023-04-22T09:32:58.965Z,65984
2023-04-22T09:33:59.526Z,79424
2023-04-22T09:35:00.194Z,87840
2023-04-22T09:36:00.741Z,83584
2023-04-22T09:37:01.343Z,70176
2023-04-22T09:38:01.963Z,55360
2023-04-22T09:39:02.581Z,53376
2023-04-22T09:40:03.185Z,65504
2023-04-22T09:41:03.805Z,84704
2023-04-22T09:42:04.402Z,99712
2023-04-22T09:43:05.004Z,95456
2023-04-22T09:44:05.639Z,80128
2023-04-22T09:45:06.251Z,64288
2023-04-22T09:46:07.028Z,53024
2023-04-22T09:47:07.473Z,55456
2023-04-22T09:48:08.084Z,71168
2023-04-22T09:49:08.680Z,89856
2023-04-22T09:50:09.294Z,96832
2023-04-22T09:51:09.885Z,92928
2023-04-22T09:52:10.487Z,88864
2023-04-22T09:53:11.134Z,87840
2023-04-22T09:54:11.795Z,94816
2023-04-22T09:55:12.408Z,105440
2023-04-22T09:56:13.011Z,112160
2023-04-22T09:57:13.618Z,111008
2023-04-22T09:58:14.221Z,106688
2023-04-22T09:59:14.835Z,104704
2023-04-22T10:00:15.458Z,103168
2023-04-22T10:01:16.148Z,106752
2023-04-22T10:02:16.793Z,96480
2023-04-22T10:03:17.454Z,91968
2023-04-22T10:04:17.983Z,103296
2023-04-22T10:05:18.574Z,55360
2023-04-22T10:06:19.175Z,55904
2023-04-22T10:07:19.785Z,68096
2023-04-22T10:08:20.389Z,103968
2023-04-22T10:09:21.004Z,103776
2023-04-22T10:10:21.633Z,99424
2023-04-22T10:11:22.226Z,90016
2023-04-22T10:12:32.855Z,85056
2023-04-22T10:13:24.443Z,90624
2023-04-22T10:14:25.061Z,95680
2023-04-22T10:15:26.988Z,95168
2023-04-22T10:16:26.292Z,86560
2023-04-22T10:17:26.885Z,78112
2023-04-22T10:18:27.477Z,78816
2023-04-22T10:19:28.085Z,89056
2023-04-22T10:20:28.693Z,100320
2023-04-22T10:21:29.321Z,105408
2023-04-22T10:22:29.942Z,99776
2023-04-22T10:23:30.531Z,88224
2023-04-22T10:24:31.346Z,84160
2023-04-22T10:25:31.887Z,89280
2023-04-22T10:26:32.515Z,92960
2023-04-22T10:27:33.115Z,94432
2023-04-22T10:28:33.712Z,87968
2023-04-22T10:29:34.332Z,86592
2023-04-22T10:30:35.243Z,85472
2023-04-22T10:31:35.832Z,85184
2023-04-22T10:32:36.402Z,92704
2023-04-22T10:33:37.006Z,96992
2023-04-22T10:34:37.597Z,91712
2023-04-22T10:35:38.205Z,87808
2023-04-22T10:36:38.805Z,98400
2023-04-22T10:37:39.439Z,98720
2023-04-22T10:38:40.021Z,94080
2023-04-22T10:39:40.912Z,90912
2023-04-22T10:40:41.712Z,88768
2023-04-22T10:41:42.314Z,88992
2023-04-22T10:42:42.941Z,86976
2023-04-22T10:43:43.549Z,88096
2023-04-22T10:44:44.145Z,85248
2023-04-22T10:45:44.749Z,82368
2023-04-22T10:46:45.558Z,79584
2023-04-22T10:47:45.979Z,79808
2023-04-22T10:48:46.572Z,84512
2023-04-22T10:49:47.167Z,91296
2023-04-22T10:50:47.767Z,85472
2023-04-22T10:51:48.381Z,78656
2023-04-22T10:52:48.992Z,73536
2023-04-22T10:53:49.595Z,66688
2023-04-22T10:54:50.200Z,68832
2023-04-22T10:55:50.806Z,73888
2023-04-22T10:56:57.564Z,75200
2023-04-22T10:57:52.991Z,74880
2023-04-22T10:58:53.604Z,75584
2023-04-22T10:59:54.199Z,73536
2023-04-22T11:00:54.816Z,70784
2023-04-22T11:01:55.465Z,71264
2023-04-22T11:02:56.185Z,76256
2023-04-22T11:03:56.951Z,80320
2023-04-22T11:04:57.542Z,83584
2023-04-22T11:05:58.146Z,78208
2023-04-22T11:06:58.750Z,81184
2023-04-22T11:07:59.384Z,85696
2023-04-22T11:08:59.994Z,88736
2023-04-22T11:10:00.618Z,80000
2023-04-22T11:11:01.227Z,77888
2023-04-22T11:12:01.831Z,78944
2023-04-22T11:13:02.430Z,79008
2023-04-22T11:14:03.032Z,78752
2023-04-22T11:15:03.640Z,76576
2023-04-22T11:16:04.282Z,77248
2023-04-22T11:17:04.846Z,75136
2023-04-22T11:18:05.447Z,72704
2023-04-22T11:19:06.051Z,70080
2023-04-22T11:20:06.669Z,66848
2023-04-22T11:21:07.274Z,73856
2023-04-22T11:22:07.876Z,70240
2023-04-22T11:23:08.471Z,65760
2023-04-22T11:24:09.080Z,64320
2023-04-22T11:25:09.674Z,69664
2023-04-22T11:26:10.276Z,62976
2023-04-22T11:27:10.876Z,59712
2023-04-22T11:28:11.550Z,58816
2023-04-22T11:29:12.099Z,60576
2023-04-22T11:30:12.690Z,63456
2023-04-22T11:31:13.310Z,65024
2023-04-22T11:32:13.893Z,84320
2023-04-22T11:33:14.497Z,99200
2023-04-22T11:34:15.101Z,106912
2023-04-22T11:35:15.702Z,103872
2023-04-22T11:36:16.305Z,99776
2023-04-22T11:37:16.910Z,101632
2023-04-22T11:38:17.517Z,96256
2023-04-22T11:39:18.120Z,88736
2023-04-22T11:40:29.410Z,98784
2023-04-22T11:41:19.333Z,97760
2023-04-22T11:42:19.939Z,96288
2023-04-22T11:43:20.535Z,95552
2023-04-22T11:44:21.139Z,96352
2023-04-22T11:45:21.740Z,99840
2023-04-22T11:46:22.676Z,107136
2023-04-22T11:47:23.245Z,119744
2023-04-22T11:48:23.843Z,120384
2023-04-22T11:49:24.440Z,109440
2023-04-22T11:50:25.043Z,96704
2023-04-22T11:51:25.646Z,96032
2023-04-22T11:52:26.260Z,99648
2023-04-22T11:53:26.853Z,104928
2023-04-22T11:54:27.475Z,118752
2023-04-22T11:55:28.073Z,120480
2023-04-22T11:56:28.695Z,117536
2023-04-22T11:57:29.293Z,113312
2023-04-22T11:58:29.897Z,108224
2023-04-22T11:59:30.504Z,102304
2023-04-22T12:00:31.101Z,96256
2023-04-22T12:01:31.707Z,100480
2023-04-22T12:02:32.426Z,112832
2023-04-22T12:03:33.182Z,124704
2023-04-22T12:04:33.626Z,124128
2023-04-22T12:05:34.364Z,113632
2023-04-22T12:06:34.954Z,105344
2023-04-22T12:07:35.561Z,99008
2023-04-22T12:08:36.163Z,93824
2023-04-22T12:09:36.839Z,105344
2023-04-22T12:10:37.424Z,112544
2023-04-22T12:11:38.024Z,113056
2023-04-22T12:12:38.645Z,55552
2023-04-22T12:13:39.246Z,93280
2023-04-22T12:14:39.867Z,92960
2023-04-22T12:15:40.470Z,96672
2023-04-22T12:16:41.094Z,95648
2023-04-22T12:17:41.720Z,93184
2023-04-22T12:18:42.293Z,94528
2023-04-22T12:19:42.993Z,95520
2023-04-22T12:20:43.564Z,99456
2023-04-22T12:21:44.166Z,102240
2023-04-22T12:22:44.779Z,101216
2023-04-22T12:23:45.377Z,98304
2023-04-22T12:24:45.990Z,98528
2023-04-22T12:25:46.598Z,104896
2023-04-22T12:26:47.203Z,119872
2023-04-22T12:27:47.819Z,113184
2023-04-22T12:28:48.407Z,114496
2023-04-22T12:29:49.009Z,116768
2023-04-22T12:30:49.637Z,104256
2023-04-22T12:31:50.233Z,85472
2023-04-22T12:32:50.836Z,53376
2023-04-22T12:33:51.452Z,82144
2023-04-22T12:34:52.046Z,87808
2023-04-22T12:35:52.703Z,79840
2023-04-22T12:36:53.270Z,76160
2023-04-22T12:37:53.887Z,34080
2023-04-22T12:38:54.486Z,32544
2023-04-22T12:39:55.089Z,38048
2023-04-22T12:40:55.690Z,31968
2023-04-22T12:41:56.297Z,38912
2023-04-22T12:42:56.897Z,41856
2023-04-22T12:43:57.520Z,36576
2023-04-22T12:44:58.123Z,51872
2023-04-22T12:45:58.744Z,67552
2023-04-22T12:46:59.334Z,131008
2023-04-22T12:47:59.994Z,48288
2023-04-22T12:49:00.562Z,90016
2023-04-22T12:50:01.163Z,135648
2023-04-22T12:51:01.789Z,128416
2023-04-22T12:52:02.392Z,124704
2023-04-22T12:53:03.012Z,47360
2023-04-22T12:54:03.634Z,132864
2023-04-22T12:55:04.256Z,134688
2023-04-22T12:56:04.860Z,130624
2023-04-22T12:57:05.461Z,125792
2023-04-22T12:58:06.067Z,114016
2023-04-22T12:59:06.686Z,130688
2023-04-22T13:00:07.288Z,127840
2023-04-22T13:01:07.892Z,111360
2023-04-22T13:02:08.682Z,100352
2023-04-22T13:03:09.375Z,91072
2023-04-22T13:04:10.062Z,90912
2023-04-22T13:05:10.592Z,92864
2023-04-22T13:06:11.193Z,84128
2023-04-22T13:07:11.795Z,37728
2023-04-22T13:08:12.394Z,87584
2023-04-22T13:09:13.062Z,100448
2023-04-22T13:10:13.619Z,106464
2023-04-22T13:11:14.222Z,113088
2023-04-22T13:12:14.825Z,118752
2023-04-22T13:13:17.896Z,112064
2023-04-22T13:14:16.308Z,43936
2023-04-22T13:15:16.912Z,98368
2023-04-22T13:16:17.565Z,111072
2023-04-22T13:17:18.141Z,136832
2023-04-22T13:18:18.811Z,40448
2023-04-22T13:19:19.422Z,161408
2023-04-22T13:20:20.019Z,36512
2023-04-22T13:21:20.624Z,40768
2023-04-22T13:22:21.225Z,60992
2023-04-22T13:23:22.161Z,133280
2023-04-22T13:24:22.776Z,133248
2023-04-22T13:25:23.384Z,120480
2023-04-22T13:26:23.984Z,85376
2023-04-22T13:27:24.606Z,80768
2023-04-22T13:28:25.207Z,67904
2023-04-22T13:29:25.809Z,59552
2023-04-22T13:30:26.452Z,72704
2023-04-22T13:31:27.184Z,95776
2023-04-22T13:32:27.740Z,106752
2023-04-22T13:33:28.340Z,109312